createdAt,value
2023-01-10T00:00:50.398Z,4.14
2023-01-10T00:03:18.394Z,4.08
2023-01-10T00:05:45.971Z,4.01
2023-01-10T00:08:17.097Z,3.98
2023-01-10T00:10:44.641Z,3.99
2023-01-10T00:13:25.024Z,4.05
2023-01-10T00:15:55.134Z,4.34
2023-01-10T00:18:22.881Z,4.02
2023-01-10T00:20:50.717Z,4.11
2023-01-10T00:23:18.956Z,4.00
2023-01-10T00:25:47.167Z,4.07
2023-01-10T00:28:20.522Z,3.96
2023-01-10T00:30:56.019Z,3.87
2023-01-10T00:33:23.135Z,4.03
2023-01-10T00:35:50.084Z,3.82
2023-01-10T00:38:17.106Z,3.75
2023-01-10T00:40:44.685Z,3.69
2023-01-10T00:43:30.262Z,3.82
2023-01-10T00:45:58.506Z,4.02
2023-01-10T00:48:25.620Z,3.87
2023-01-10T00:50:52.764Z,3.95
2023-01-10T00:53:19.689Z,4.02
2023-01-10T00:55:47.581Z,3.95
2023-01-10T00:58:15.716Z,3.89
2023-01-10T01:00:49.889Z,4.21
2023-01-10T01:03:19.440Z,3.88
2023-01-10T01:05:47.667Z,3.81
2023-01-10T01:08:17.012Z,3.82
2023-01-10T01:10:44.287Z,3.79
2023-01-10T01:13:16.122Z,3.87
2023-01-10T01:15:43.893Z,3.86
2023-01-10T01:18:13.443Z,3.81
2023-01-10T01:20:41.735Z,4.02
2023-01-10T01:23:09.032Z,3.84
2023-01-10T01:25:36.061Z,3.91
2023-01-10T01:28:03.350Z,4.12
2023-01-10T01:30:30.434Z,3.83
2023-01-10T01:32:57.414Z,3.76
2023-01-10T01:35:25.802Z,3.65
2023-01-10T01:37:52.784Z,3.66
2023-01-10T01:40:22.617Z,3.75
2023-01-10T01:42:49.695Z,3.78
2023-01-10T01:45:34.946Z,3.89
2023-01-10T01:48:40.305Z,4.11
2023-01-10T01:51:27.981Z,3.91
2023-01-10T01:54:02.082Z,3.95
2023-01-10T01:56:35.405Z,4.25
2023-01-10T01:59:28.770Z,4.36
2023-01-10T02:02:05.532Z,4.26
2023-01-10T02:04:41.929Z,4.34
2023-01-10T02:07:10.945Z,4.12
2023-01-10T02:09:45.879Z,4.00
2023-01-10T02:12:14.211Z,4.03
2023-01-10T02:14:44.023Z,3.86
2023-01-10T02:17:12.179Z,3.97
2023-01-10T02:20:02.065Z,3.97
2023-01-10T02:23:00.375Z,4.03
2023-01-10T02:26:12.743Z,4.03
2023-01-10T02:29:20.976Z,4.08
2023-01-10T02:32:25.815Z,4.06
2023-01-10T02:35:24.235Z,4.10
2023-01-10T02:38:43.897Z,4.18
2023-01-10T02:41:52.756Z,4.14
2023-01-10T02:44:25.221Z,4.12
2023-01-10T02:46:52.340Z,4.32
2023-01-10T02:49:19.809Z,4.23
2023-01-10T02:51:47.382Z,4.28
2023-01-10T02:54:22.908Z,4.35
2023-01-10T03:03:12.251Z,4.40
2023-01-10T03:06:18.552Z,4.34
2023-01-10T03:08:59.967Z,4.20
2023-01-10T03:11:41.870Z,4.21
2023-01-10T03:14:20.595Z,4.22
2023-01-10T03:16:53.287Z,4.26
2023-01-10T03:19:24.453Z,4.34
2023-01-10T03:21:57.527Z,4.36
2023-01-10T03:24:34.192Z,4.38
2023-01-10T03:27:30.992Z,4.40
2023-01-10T03:30:26.526Z,4.27
2023-01-10T03:32:56.638Z,4.24
2023-01-10T03:35:31.719Z,4.22
2023-01-10T03:38:09.876Z,4.28
2023-01-10T03:40:56.725Z,4.38
2023-01-10T03:43:56.630Z,4.48
2023-01-10T03:46:36.404Z,4.56
2023-01-10T03:49:06.827Z,4.60
2023-01-10T03:51:35.014Z,4.69
2023-01-10T03:54:02.788Z,4.74
2023-01-10T03:56:30.121Z,4.77
2023-01-10T03:58:57.416Z,4.73
2023-01-10T04:01:24.432Z,4.83
2023-01-10T04:03:51.765Z,4.85
2023-01-10T04:06:20.288Z,4.72
2023-01-10T04:08:47.474Z,4.64
2023-01-10T04:11:14.382Z,4.52
2023-01-10T04:13:42.997Z,4.53
2023-01-10T04:16:10.075Z,4.69
2023-01-10T04:18:37.179Z,4.61
2023-01-10T04:21:04.630Z,4.38
2023-01-10T04:23:31.634Z,4.28
2023-01-10T04:25:58.874Z,4.22
2023-01-10T04:28:25.953Z,4.22
2023-01-10T04:30:52.936Z,4.19
2023-01-10T04:33:20.161Z,4.19
2023-01-10T04:35:51.601Z,4.26
2023-01-10T04:38:19.058Z,4.32
2023-01-10T04:40:53.685Z,4.42
2023-01-10T04:43:20.833Z,4.51
2023-01-10T04:45:48.175Z,4.60
2023-01-10T04:48:15.291Z,4.67
2023-01-10T04:50:42.396Z,4.74
2023-01-10T04:53:09.598Z,4.78
2023-01-10T04:55:36.581Z,4.81
2023-01-10T04:58:03.530Z,4.85
2023-01-10T05:00:30.594Z,4.89
2023-01-10T05:02:58.274Z,4.82
2023-01-10T05:05:26.419Z,4.77
2023-01-10T05:07:53.405Z,4.75
2023-01-10T05:10:20.750Z,4.74
2023-01-10T05:12:47.663Z,4.72
2023-01-10T05:15:14.921Z,4.70
2023-01-10T05:17:41.897Z,4.72
2023-01-10T05:20:10.140Z,4.75
2023-01-10T05:22:37.128Z,4.70
2023-01-10T05:25:04.737Z,4.69
2023-01-10T05:27:31.658Z,4.76
2023-01-10T05:29:58.801Z,4.78
2023-01-10T05:32:29.853Z,4.83
2023-01-10T05:34:57.543Z,4.88
2023-01-10T05:37:24.574Z,4.93
2023-01-10T05:39:51.742Z,4.93
2023-01-10T05:42:19.917Z,4.94
2023-01-10T05:44:47.289Z,4.94
2023-01-10T05:47:14.601Z,4.99
2023-01-10T05:49:41.666Z,5.08
2023-01-10T05:52:08.732Z,5.07
2023-01-10T05:54:35.737Z,5.07
2023-01-10T05:57:02.893Z,5.05
2023-01-10T05:59:29.892Z,5.06
2023-01-10T06:01:58.472Z,5.08
2023-01-10T06:04:26.981Z,5.06
2023-01-10T06:06:53.966Z,5.03
2023-01-10T06:09:20.952Z,5.01
2023-01-10T06:11:48.162Z,5.04
2023-01-10T06:14:19.541Z,5.08
2023-01-10T06:16:47.143Z,5.07
2023-01-10T06:19:14.357Z,5.09
2023-01-10T06:21:41.392Z,5.13
2023-01-10T06:24:09.270Z,5.19
2023-01-10T06:26:36.569Z,5.23
2023-01-10T06:29:03.485Z,5.23
2023-01-10T06:31:30.704Z,5.21
2023-01-10T06:33:57.747Z,5.19
2023-01-10T06:36:24.909Z,5.21
2023-01-10T06:38:52.253Z,5.21
2023-01-10T06:41:19.356Z,5.20
2023-01-10T06:43:47.499Z,5.25
2023-01-10T06:46:16.773Z,5.27
2023-01-10T06:48:45.804Z,5.29
2023-01-10T06:51:14.286Z,5.29
2023-01-10T06:53:42.060Z,5.31
2023-01-10T06:56:09.955Z,5.32
2023-01-10T06:58:39.046Z,5.34
2023-01-10T07:01:08.137Z,5.40
2023-01-10T07:03:35.330Z,5.43
2023-01-10T07:06:03.781Z,5.47
2023-01-10T07:08:30.902Z,5.51
2023-01-10T07:11:01.108Z,5.55
2023-01-10T07:13:28.239Z,5.56
2023-01-10T07:16:16.277Z,5.60
2023-01-10T07:18:43.827Z,5.66
2023-01-10T07:21:11.954Z,5.65
2023-01-10T07:23:39.197Z,5.67
2023-01-10T07:26:08.904Z,5.67
2023-01-10T07:28:36.172Z,5.69
2023-01-10T07:31:06.116Z,5.69
2023-01-10T07:33:33.742Z,5.70
2023-01-10T07:36:01.929Z,5.72
2023-01-10T07:38:29.526Z,5.79
2023-01-10T07:40:57.388Z,5.80
2023-01-10T07:43:24.544Z,5.85
2023-01-10T07:45:52.067Z,5.85
2023-01-10T07:48:19.351Z,5.74
2023-01-10T07:50:46.667Z,5.62
2023-01-10T07:53:13.877Z,5.48
2023-01-10T07:55:41.430Z,5.30
2023-01-10T07:58:08.594Z,5.19
2023-01-10T08:00:36.069Z,5.19
2023-01-10T08:03:03.807Z,5.14
2023-01-10T08:05:30.867Z,4.95
2023-01-10T08:08:00.490Z,4.94
2023-01-10T08:10:27.743Z,4.74
2023-01-10T08:12:54.935Z,4.74
2023-01-10T08:15:22.211Z,4.94
2023-01-10T08:17:49.973Z,5.06
2023-01-10T08:20:17.278Z,4.79
2023-01-10T08:22:44.380Z,4.84
2023-01-10T08:25:11.618Z,5.02
2023-01-10T08:27:38.618Z,5.14
2023-01-10T08:30:06.882Z,4.94
2023-01-10T08:32:34.249Z,4.97
2023-01-10T08:35:01.264Z,4.98
2023-01-10T08:37:28.962Z,4.83
2023-01-10T08:39:55.991Z,4.91
2023-01-10T08:42:23.069Z,4.96
2023-01-10T08:44:50.165Z,4.91
2023-01-10T08:47:17.153Z,4.94
2023-01-10T08:49:44.111Z,4.86
2023-01-10T08:52:11.265Z,5.01
2023-01-10T08:54:38.405Z,5.07
2023-01-10T08:57:05.555Z,5.24
2023-01-10T08:59:32.614Z,5.02
2023-01-10T09:02:00.098Z,5.20
2023-01-10T09:04:31.203Z,5.19
2023-01-10T09:06:59.868Z,5.08
2023-01-10T09:09:26.963Z,5.27
2023-01-10T09:11:54.153Z,5.09
2023-01-10T09:14:21.376Z,5.13
2023-01-10T09:16:51.896Z,5.13
2023-01-10T09:19:19.035Z,5.20
2023-01-10T09:21:46.146Z,5.27
2023-01-10T09:24:13.679Z,5.10
2023-01-10T09:26:40.741Z,5.17
2023-01-10T09:29:10.194Z,5.11
2023-01-10T09:31:37.170Z,5.14
2023-01-10T09:34:04.191Z,5.25
2023-01-10T09:36:31.260Z,5.23
2023-01-10T09:38:58.246Z,5.40
2023-01-10T09:42:11.914Z,5.51
2023-01-10T09:45:21.744Z,5.47
2023-01-10T09:48:13.467Z,5.44
2023-01-10T09:51:00.621Z,5.44
2023-01-10T09:53:31.907Z,5.54
2023-01-10T09:56:01.481Z,5.48
2023-01-10T09:58:34.792Z,5.72
2023-01-10T10:01:17.304Z,5.77
2023-01-10T10:04:27.025Z,5.63
2023-01-10T10:06:54.537Z,5.72
2023-01-10T10:09:27.992Z,5.74
2023-01-10T10:15:44.148Z,5.68
2023-01-10T10:18:36.088Z,5.54
2023-01-10T10:21:37.297Z,5.70
2023-01-10T10:24:57.060Z,5.58
2023-01-10T10:28:03.501Z,5.65
2023-01-10T10:31:00.357Z,5.65
2023-01-10T10:34:25.664Z,5.62
2023-01-10T10:37:06.496Z,5.79
2023-01-10T10:39:51.639Z,5.84
2023-01-10T10:42:19.554Z,5.92
2023-01-10T10:45:17.659Z,5.88
2023-01-10T10:47:50.635Z,5.91
2023-01-10T10:50:32.479Z,5.85
2023-01-10T10:53:02.448Z,5.78
2023-01-10T10:55:33.593Z,5.78
2023-01-10T10:58:02.605Z,6.00
2023-01-10T11:00:30.674Z,6.01
2023-01-10T11:03:36.782Z,5.83
2023-01-10T11:06:07.110Z,5.83
2023-01-10T11:08:37.408Z,5.80
2023-01-10T11:11:14.566Z,5.95
2023-01-10T11:13:47.539Z,5.92
2023-01-10T11:16:50.011Z,5.94
2023-01-10T11:19:23.098Z,6.01
2023-01-10T11:21:59.365Z,6.09
2023-01-10T11:24:40.125Z,6.01
2023-01-10T11:27:19.625Z,5.78
2023-01-10T11:29:58.236Z,5.73
2023-01-10T11:32:53.640Z,5.87
2023-01-10T11:35:24.541Z,5.93
2023-01-10T11:38:22.307Z,5.82
2023-01-10T11:41:03.597Z,5.80
2023-01-10T11:43:41.628Z,5.80
2023-01-10T11:46:18.053Z,6.01
2023-01-10T11:49:05.775Z,5.88
2023-01-10T11:51:37.516Z,5.85
2023-01-10T11:54:12.617Z,5.99
2023-01-10T11:56:41.931Z,6.03
2023-01-10T11:59:19.227Z,5.94
2023-01-10T12:01:54.091Z,5.84
2023-01-10T12:04:22.450Z,5.71
2023-01-10T12:06:53.102Z,5.71
2023-01-10T12:09:59.432Z,5.83
2023-01-10T12:12:35.097Z,5.86
2023-01-10T12:15:35.609Z,5.79
2023-01-10T12:18:05.404Z,5.75
2023-01-10T12:20:38.527Z,5.93
2023-01-10T12:23:13.593Z,5.87
2023-01-10T12:25:44.746Z,5.84
2023-01-10T12:28:30.910Z,6.03
2023-01-10T12:31:00.750Z,5.94
2023-01-10T12:33:34.555Z,5.97
2023-01-10T12:36:31.239Z,5.93
2023-01-10T12:39:16.469Z,6.05
2023-01-10T12:42:35.701Z,6.05
2023-01-10T12:45:27.213Z,5.94
2023-01-10T12:48:24.437Z,5.97
2023-01-10T12:50:59.094Z,5.97
2023-01-10T12:53:47.567Z,6.05
2023-01-10T12:56:16.957Z,6.09
2023-01-10T12:58:53.013Z,6.02
2023-01-10T13:01:30.222Z,6.04
2023-01-10T13:04:06.466Z,6.02
2023-01-10T13:06:37.654Z,6.01
2023-01-10T13:09:08.743Z,6.17
2023-01-10T13:11:55.510Z,6.06
2023-01-10T13:14:29.542Z,6.06
2023-01-10T13:17:17.098Z,5.98
2023-01-10T13:19:44.353Z,5.95
2023-01-10T13:22:24.077Z,6.13
2023-01-10T13:25:00.197Z,6.19
2023-01-10T13:27:36.362Z,6.08
2023-01-10T13:30:04.723Z,6.21
2023-01-10T13:32:36.432Z,6.18
2023-01-10T13:35:18.793Z,6.13
2023-01-10T13:37:53.215Z,6.23
2023-01-10T13:40:28.346Z,6.17
2023-01-10T13:43:47.127Z,6.30
2023-01-10T13:46:47.794Z,6.41
2023-01-10T13:49:26.764Z,6.16
2023-01-10T13:52:28.591Z,6.21
2023-01-10T13:54:57.672Z,5.96
2023-01-10T14:01:55.354Z,5.83
2023-01-10T14:04:37.769Z,5.86
2023-01-10T14:07:15.669Z,5.76
2023-01-10T14:09:48.217Z,5.56
2023-01-10T14:12:23.826Z,5.49
2023-01-10T14:15:04.792Z,5.50
2023-01-10T14:17:37.630Z,5.71
2023-01-10T14:20:32.452Z,5.85
2023-01-10T14:23:09.015Z,5.83
2023-01-10T14:25:37.971Z,5.60
2023-01-10T14:28:16.104Z,5.66
2023-01-10T14:30:43.307Z,5.57
2023-01-10T14:33:20.720Z,5.58
2023-01-10T14:35:55.063Z,5.54
2023-01-10T14:38:28.350Z,5.50
2023-01-10T14:41:05.669Z,5.71
2023-01-10T14:43:45.106Z,5.51
2023-01-10T14:46:19.327Z,5.43
2023-01-10T14:48:52.099Z,5.41
2023-01-10T14:51:30.080Z,5.27
2023-01-10T14:54:00.075Z,5.40
2023-01-10T14:56:39.072Z,5.21
2023-01-10T14:59:25.751Z,5.18
2023-01-10T15:02:25.775Z,5.20
2023-01-10T15:05:03.177Z,5.46
2023-01-10T15:07:30.158Z,5.47
2023-01-10T15:10:02.662Z,5.20
2023-01-10T15:12:33.061Z,5.25
2023-01-10T15:15:13.676Z,5.17
2023-01-10T15:17:42.568Z,5.27
2023-01-10T15:20:17.297Z,5.12
2023-01-10T15:22:48.220Z,5.07
2023-01-10T15:25:42.087Z,4.86
2023-01-10T15:28:16.437Z,4.64
2023-01-10T15:30:44.563Z,4.53
2023-01-10T15:33:17.317Z,4.71
2023-01-10T15:35:44.522Z,4.64
2023-01-10T15:38:18.245Z,4.47
2023-01-10T15:40:45.958Z,4.37
2023-01-10T15:43:24.720Z,4.27
2023-01-10T15:45:54.476Z,4.15
2023-01-10T15:48:40.249Z,4.14
2023-01-10T15:51:33.078Z,4.02
2023-01-10T15:54:30.292Z,3.72
2023-01-10T15:57:04.631Z,3.58
2023-01-10T15:59:34.344Z,3.38
2023-01-10T16:02:21.230Z,3.19
2023-01-10T16:04:51.262Z,3.07
2023-01-10T16:07:35.023Z,2.92
2023-01-10T16:10:08.949Z,2.70
2023-01-10T16:12:57.275Z,2.62
2023-01-10T16:15:27.578Z,2.55
2023-01-10T16:17:55.652Z,2.50
2023-01-10T16:20:29.660Z,2.37
2023-01-10T16:22:58.004Z,2.55
2023-01-10T16:25:37.614Z,2.54
2023-01-10T16:28:07.381Z,2.44
2023-01-10T16:30:36.688Z,2.38
2023-01-10T16:33:13.568Z,2.27
2023-01-10T16:35:41.423Z,2.12
2023-01-10T16:38:11.995Z,2.24
2023-01-10T16:40:41.768Z,2.24
2023-01-10T16:43:21.939Z,2.17
2023-01-10T16:45:56.131Z,1.99
2023-01-10T16:48:23.187Z,2.09
2023-01-10T16:50:52.490Z,2.11
2023-01-10T16:53:21.740Z,2.08
2023-01-10T16:55:54.722Z,2.10
2023-01-10T16:58:21.721Z,2.17
2023-01-10T17:00:51.421Z,2.06
2023-01-10T17:03:24.154Z,2.12
2023-01-10T17:05:51.831Z,2.21
2023-01-10T17:08:23.880Z,2.24
2023-01-10T17:10:56.322Z,2.08
2023-01-10T17:13:30.564Z,2.14
2023-01-10T17:15:59.852Z,2.20
2023-01-10T17:18:28.807Z,2.08
2023-01-10T17:20:57.779Z,2.19
2023-01-10T17:23:26.614Z,2.21
2023-01-10T17:26:05.438Z,2.11
2023-01-10T17:28:32.803Z,2.26
2023-01-10T17:31:00.167Z,2.36
2023-01-10T17:33:27.542Z,2.32
2023-01-10T17:35:58.514Z,2.28
2023-01-10T17:38:26.849Z,2.29
2023-01-10T17:40:54.821Z,2.20
2023-01-10T17:43:23.526Z,2.10
2023-01-10T17:45:52.532Z,2.26
2023-01-10T17:48:20.465Z,2.30
2023-01-10T17:50:50.859Z,2.22
2023-01-10T17:53:18.809Z,2.15
2023-01-10T17:55:52.188Z,2.28
2023-01-10T17:58:20.157Z,2.36
2023-01-10T18:00:49.629Z,2.41
2023-01-10T18:03:18.482Z,2.52
2023-01-10T18:05:58.121Z,2.21
2023-01-10T18:08:26.161Z,2.30
2023-01-10T18:10:59.744Z,2.20
2023-01-10T18:13:32.726Z,2.35
2023-01-10T18:16:01.766Z,2.29
2023-01-10T18:18:30.348Z,2.60
2023-01-10T18:21:01.129Z,2.44
2023-01-10T18:23:28.289Z,2.32
2023-01-10T18:26:06.849Z,2.49
2023-01-10T18:28:41.819Z,2.47
2023-01-10T18:31:17.569Z,2.41
2023-01-10T18:33:46.347Z,2.37
2023-01-10T18:36:16.132Z,2.27
2023-01-10T18:38:44.264Z,2.18
2023-01-10T18:41:11.288Z,2.59
2023-01-10T18:43:38.362Z,2.34
2023-01-10T18:46:08.323Z,2.60
2023-01-10T18:48:35.469Z,2.38
2023-01-10T18:51:04.078Z,2.33
2023-01-10T18:53:31.917Z,2.36
2023-01-10T18:56:04.936Z,2.30
2023-01-10T18:58:34.988Z,2.40
2023-01-10T19:01:22.446Z,2.20
2023-01-10T19:03:50.806Z,2.14
2023-01-10T19:06:20.143Z,2.11
2023-01-10T19:08:47.719Z,2.05
2023-01-10T19:11:16.800Z,2.31
2023-01-10T19:13:45.088Z,2.34
2023-01-10T19:16:19.556Z,2.31
2023-01-10T19:18:55.031Z,2.31
2023-01-10T19:21:23.489Z,2.55
2023-01-10T19:23:54.361Z,2.50
2023-01-10T19:26:22.429Z,2.44
2023-01-10T19:28:49.910Z,2.36
2023-01-10T19:31:18.579Z,2.64
2023-01-10T19:33:47.884Z,2.72
2023-01-10T19:36:16.171Z,2.65
2023-01-10T19:38:43.216Z,2.41
2023-01-10T19:41:10.912Z,2.61
2023-01-10T19:43:37.959Z,2.60
2023-01-10T19:46:10.469Z,2.62
2023-01-10T19:48:38.562Z,2.65
2023-01-10T19:51:11.465Z,2.80
2023-01-10T19:53:42.798Z,2.91
2023-01-10T19:56:10.402Z,2.91
2023-01-10T19:58:39.861Z,2.91
2023-01-10T20:01:10.242Z,2.92
2023-01-10T20:03:39.539Z,2.92
2023-01-10T20:06:09.505Z,2.89
2023-01-10T20:08:37.022Z,2.94
2023-01-10T20:11:05.964Z,2.85
2023-01-10T20:13:36.089Z,2.89
2023-01-10T20:16:07.185Z,2.90
2023-01-10T20:18:34.433Z,3.03
2023-01-10T20:21:06.989Z,2.85
2023-01-10T20:23:35.755Z,2.94
2023-01-10T20:26:10.271Z,3.09
2023-01-10T20:28:39.734Z,3.10
2023-01-10T20:31:13.276Z,3.02
2023-01-10T20:33:41.861Z,2.94
2023-01-10T20:36:12.956Z,2.96
2023-01-10T20:38:40.450Z,3.08
2023-01-10T20:41:14.390Z,3.24
2023-01-10T20:43:42.402Z,3.25
2023-01-10T20:46:12.860Z,3.40
2023-01-10T20:48:42.267Z,3.28
2023-01-10T20:51:13.360Z,3.33
2023-01-10T20:53:41.189Z,3.26
2023-01-10T20:56:12.384Z,3.35
2023-01-10T20:58:43.058Z,3.34
2023-01-10T21:01:13.604Z,3.19
2023-01-10T21:03:46.460Z,3.09
2023-01-10T21:06:15.635Z,3.05
2023-01-10T21:08:43.233Z,3.15
2023-01-10T21:11:12.947Z,3.31
2023-01-10T21:13:40.684Z,3.10
2023-01-10T21:16:09.987Z,3.32
2023-01-10T21:18:46.180Z,3.47
2023-01-10T21:21:18.084Z,3.27
2023-01-10T21:23:45.380Z,3.38
2023-01-10T21:26:15.134Z,3.47
2023-01-10T21:28:47.153Z,3.51
2023-01-10T21:31:20.740Z,3.41
2023-01-10T21:33:49.558Z,3.39
2023-01-10T21:36:18.457Z,3.38
2023-01-10T21:38:45.888Z,3.44
2023-01-10T21:41:36.248Z,3.45
2023-01-10T21:44:05.739Z,3.44
2023-01-10T21:46:33.376Z,3.44
2023-01-10T21:49:05.357Z,3.43
2023-01-10T21:51:33.101Z,3.51
2023-01-10T21:54:00.501Z,3.46
2023-01-10T21:56:27.871Z,3.37
2023-01-10T21:58:55.086Z,3.40
2023-01-10T22:01:22.410Z,3.45
2023-01-10T22:03:50.032Z,3.51
2023-01-10T22:06:17.552Z,3.41
2023-01-10T22:08:44.684Z,3.41
2023-01-10T22:11:12.201Z,3.37
2023-01-10T22:13:39.879Z,3.44
2023-01-10T22:16:07.500Z,3.28
2023-01-10T22:18:35.156Z,3.34
2023-01-10T22:21:02.712Z,3.23
2023-01-10T22:23:31.192Z,3.21
2023-01-10T22:26:11.215Z,3.36
2023-01-10T22:28:38.487Z,3.35
2023-01-10T22:31:06.108Z,3.33
2023-01-10T22:33:36.595Z,3.28
2023-01-10T22:36:30.121Z,3.23
2023-01-10T22:38:57.116Z,3.43
2023-01-10T22:41:28.983Z,3.37
2023-01-10T22:43:57.415Z,3.55
2023-01-10T22:46:24.851Z,3.45
2023-01-10T22:48:52.244Z,3.50
2023-01-10T22:51:21.194Z,3.59
2023-01-10T22:54:07.227Z,3.57
2023-01-10T22:56:34.336Z,3.58
2023-01-10T22:59:01.434Z,3.54
2023-01-10T23:01:28.364Z,3.36
2023-01-10T23:03:55.316Z,3.28
2023-01-10T23:06:22.462Z,3.19
2023-01-10T23:08:50.827Z,3.17
2023-01-10T23:11:22.039Z,3.26
2023-01-10T23:13:50.007Z,3.30
2023-01-10T23:16:28.625Z,3.31
2023-01-10T23:18:57.759Z,3.42
2023-01-10T23:21:25.991Z,3.47
2023-01-10T23:23:53.213Z,3.48
2023-01-10T23:26:20.398Z,3.44
2023-01-10T23:28:50.144Z,3.34
2023-01-10T23:31:22.969Z,3.25
2023-01-10T23:33:51.116Z,3.20
2023-01-10T23:36:18.655Z,3.32
2023-01-10T23:38:45.872Z,3.49
2023-01-10T23:41:12.934Z,3.46
2023-01-10T23:43:39.943Z,3.34
2023-01-10T23:46:07.505Z,3.34
2023-01-10T23:48:35.106Z,3.33
2023-01-10T23:51:02.108Z,3.30
2023-01-10T23:53:28.968Z,3.35
2023-01-10T23:55:55.962Z,3.36
2023-01-10T23:58:22.995Z,3.34
